Time;durP1;ratioP1;P1;durP2;ratioP2;P2;SDS_P1;SDS_P2;PMS_P1;PMS_P2;Temp;Humidity;BMP_temperature;BMP_pressure;BME280_temperature;BME280_humidity;BME280_pressure;Samples;Min_cycle;Max_cycle;Signal;HPM_P1;HPM_P2
2021/01/24 00:02:22;;;;;;;14.75;6.92;;;;;;;1.58;84.86;98889.48;1707005;82;26506;-64
2021/01/24 00:04:48;;;;;;;9.98;5.30;;;;;;;1.55;84.79;98891.37;1725523;81;25729;-65
2021/01/24 00:07:15;;;;;;;12.03;6.28;;;;;;;1.52;84.75;98898.08;1707677;82;27498;-65
2021/01/24 00:09:42;;;;;;;10.25;5.33;;;;;;;1.50;84.76;98896.81;1723291;81;25797;-65
2021/01/24 00:12:09;;;;;;;8.65;5.12;;;;;;;1.47;84.70;98892.95;1712459;82;25842;-66
2021/01/24 00:14:36;;;;;;;8.15;4.90;;;;;;;1.44;84.68;98885.59;1723892;81;27044;-66
2021/01/24 00:17:02;;;;;;;9.38;5.85;;;;;;;1.44;84.71;98890.42;1720472;81;25795;-65
2021/01/24 00:19:28;;;;;;;10.18;5.95;;;;;;;1.44;84.67;98889.09;1693868;83;28094;-66
2021/01/24 00:21:54;;;;;;;11.50;6.00;;;;;;;1.43;84.65;98893.97;1724409;81;25829;-66
2021/01/24 00:24:20;;;;;;;11.85;6.22;;;;;;;1.46;84.73;98895.64;1689737;83;25840;-66
2021/01/24 00:26:46;;;;;;;11.30;6.30;;;;;;;1.50;84.73;98891.53;1707499;82;26476;-66
2021/01/24 00:29:13;;;;;;;10.40;5.55;;;;;;;1.51;84.69;98889.29;1715989;82;25786;-66
2021/01/24 00:31:39;;;;;;;11.48;5.50;;;;;;;1.54;84.66;98878.63;1706459;82;29561;-66
2021/01/24 00:34:05;;;;;;;10.63;6.60;;;;;;;1.52;84.57;98874.31;1706854;82;26674;-66
2021/01/24 00:36:32;;;;;;;14.55;6.60;;;;;;;1.47;84.49;98876.25;1724987;81;26459;-66
2021/01/24 00:38:58;;;;;;;14.33;7.20;;;;;;;1.47;84.60;98881.08;1705169;81;25763;-66
2021/01/24 00:41:24;;;;;;;14.80;8.20;;;;;;;1.48;84.57;98889.40;1719594;81;25851;-67
2021/01/24 00:43:50;;;;;;;11.78;7.25;;;;;;;1.44;84.49;98886.46;1708202;82;27921;-66
2021/01/24 00:46:16;;;;;;;14.38;7.08;;;;;;;1.43;84.52;98886.05;1691228;83;25753;-66
2021/01/24 00:48:42;;;;;;;14.73;7.55;;;;;;;1.44;84.54;98897.02;1706536;82;25898;-66
2021/01/24 00:51:08;;;;;;;16.65;8.93;;;;;;;1.48;84.60;98898.64;1726044;81;25786;-66
2021/01/24 00:53:34;;;;;;;16.35;7.10;;;;;;;1.49;84.58;98904.33;1706573;82;25780;-67
2021/01/24 00:56:00;;;;;;;13.55;7.53;;;;;;;1.51;84.56;98907.77;1707372;82;27548;-67
2021/01/24 00:58:27;;;;;;;13.50;7.58;;;;;;;1.53;84.57;98903.30;1724138;81;27358;-66
2021/01/24 01:00:53;;;;;;;16.05;7.35;;;;;;;1.56;84.55;98898.38;1711124;82;26461;-66
2021/01/24 01:03:19;;;;;;;15.23;7.40;;;;;;;1.57;84.52;98897.45;1706642;82;26900;-67
2021/01/24 01:05:46;;;;;;;17.75;8.55;;;;;;;1.60;84.52;98903.95;1710274;82;25999;-66
2021/01/24 01:08:13;;;;;;;15.45;8.53;;;;;;;1.61;84.53;98899.94;1722602;81;27416;-67
2021/01/24 01:10:40;;;;;;;15.28;8.90;;;;;;;1.63;84.49;98902.52;1716872;81;25783;-66
2021/01/24 01:13:07;;;;;;;18.98;9.15;;;;;;;1.68;84.55;98893.13;1709737;82;25865;-66
2021/01/24 01:15:33;;;;;;;12.78;7.83;;;;;;;1.71;84.48;98887.73;1705952;82;26214;-66
2021/01/24 01:18:00;;;;;;;14.10;8.03;;;;;;;1.73;84.47;98883.25;1700007;82;25756;-66
2021/01/24 01:20:26;;;;;;;15.25;8.30;;;;;;;1.71;84.39;98878.48;1704962;82;27465;-66
2021/01/24 01:22:53;;;;;;;16.67;8.13;;;;;;;1.73;84.43;98885.89;1681385;83;25733;-66
2021/01/24 01:25:20;;;;;;;17.02;8.75;;;;;;;1.70;84.35;98881.59;1678181;83;25779;-66
2021/01/24 01:27:46;;;;;;;12.60;7.37;;;;;;;1.68;84.37;98884.73;1680273;83;25823;-67
2021/01/24 01:30:13;;;;;;;14.03;8.45;;;;;;;1.69;84.34;98888.24;1683479;83;25810;-67
2021/01/24 01:32:39;;;;;;;15.53;8.60;;;;;;;1.68;84.31;98886.52;1679667;83;27438;-66
2021/01/24 01:35:08;;;;;;;14.00;7.42;;;;;;;1.64;84.27;98875.20;1679025;83;25815;-66
2021/01/24 01:37:34;;;;;;;15.85;8.30;;;;;;;1.66;84.36;98873.83;1678892;83;25785;-67
2021/01/24 01:40:00;;;;;;;15.75;7.08;;;;;;;1.63;84.29;98867.73;1679403;83;26529;-66
2021/01/24 01:42:26;;;;;;;11.90;7.00;;;;;;;1.61;84.23;98876.62;1676060;83;25802;-66
2021/01/24 01:44:52;;;;;;;15.43;8.03;;;;;;;1.54;84.27;98879.95;1681144;83;29608;-67
2021/01/24 01:47:25;;;;;;;14.65;7.87;;;;;;;1.55;84.32;98879.48;1679935;83;26115;-66
2021/01/24 01:49:57;;;;;;;13.03;7.05;;;;;;;1.57;84.39;98875.88;1675109;83;25908;-66
2021/01/24 01:52:28;;;;;;;17.30;7.55;;;;;;;1.63;84.42;98882.26;1681367;83;25995;-66
2021/01/24 01:54:55;;;;;;;12.98;7.53;;;;;;;1.66;84.36;98877.79;1704929;82;25789;-66
2021/01/24 01:57:24;;;;;;;12.40;7.33;;;;;;;1.63;84.25;98874.80;1680389;83;28307;-66
2021/01/24 01:59:51;;;;;;;15.40;8.08;;;;;;;1.61;84.31;98874.84;1674230;83;25819;-66
2021/01/24 02:02:50;;;;;;;12.70;7.17;;;;;;;1.56;84.15;98878.11;1678710;83;26247;-66
2021/01/24 02:05:42;;;;;;;15.28;7.75;;;;;;;1.50;84.14;98882.28;1662694;83;26598;-66
2021/01/24 02:08:18;;;;;;;22.70;8.13;;;;;;;1.51;84.28;98876.09;1697266;82;25886;-66
2021/01/24 02:11:12;;;;;;;23.38;10.28;;;;;;;1.52;84.22;98869.03;1696022;82;28737;-66
2021/01/24 02:14:09;;;;;;;16.48;8.65;;;;;;;1.47;84.15;98869.66;1693681;82;25805;-66
2021/01/24 02:16:38;;;;;;;16.00;9.28;;;;;;;1.44;84.18;98870.62;1683116;82;25954;-66
2021/01/24 02:19:06;;;;;;;20.70;10.23;;;;;;;1.42;84.19;98874.23;1696016;82;26001;-66
2021/01/24 02:21:36;;;;;;;18.00;10.00;;;;;;;1.43;84.21;98866.71;1699993;82;25805;-66
2021/01/24 02:24:06;;;;;;;19.65;10.00;;;;;;;1.47;84.29;98865.69;1692560;82;28120;-66
2021/01/24 02:27:03;;;;;;;22.77;10.18;;;;;;;1.51;84.29;98872.13;1688646;82;25885;-66
2021/01/24 02:30:12;;;;;;;21.75;10.80;;;;;;;1.54;84.31;98869.38;1705399;82;26045;-66
2021/01/24 02:32:40;;;;;;;18.48;10.80;;;;;;;1.59;84.31;98872.72;1657288;83;26151;-66
2021/01/24 02:35:08;;;;;;;24.77;11.30;;;;;;;1.60;84.21;98877.55;1682566;82;25834;-66
2021/01/24 02:37:35;;;;;;;19.65;10.03;;;;;;;1.63;84.29;98876.98;1673813;83;27599;-66
2021/01/24 02:40:03;;;;;;;16.27;9.03;;;;;;;1.64;84.20;98867.28;1699272;82;27263;-66
2021/01/24 02:42:31;;;;;;;13.22;7.35;;;;;;;1.63;84.19;98874.34;1697374;82;25968;-66
2021/01/24 02:44:58;;;;;;;15.32;7.80;;;;;;;1.63;84.14;98866.41;1700986;82;25864;-66
2021/01/24 02:47:26;;;;;;;12.50;6.58;;;;;;;1.59;84.12;98870.08;1700401;82;26013;-66
2021/01/24 02:49:54;;;;;;;15.88;6.83;;;;;;;1.59;84.13;98876.69;1700342;82;27562;-66
2021/01/24 02:52:21;;;;;;;9.95;5.47;;;;;;;1.60;84.13;98878.41;1700093;82;25943;-66
2021/01/24 02:54:48;;;;;;;8.95;5.30;;;;;;;1.63;84.15;98883.58;1708488;82;26441;-66
2021/01/24 02:57:14;;;;;;;9.43;5.37;;;;;;;1.61;84.10;98877.95;1678622;83;25912;-66
2021/01/24 02:59:41;;;;;;;10.03;5.58;;;;;;;1.59;84.11;98878.00;1706646;82;25822;-66
2021/01/24 03:02:07;;;;;;;10.20;4.35;;;;;;;1.58;84.10;98872.31;1692700;82;28383;-66
2021/01/24 03:04:33;;;;;;;10.93;5.60;;;;;;;1.60;84.15;98880.19;1699587;82;25864;-66
2021/01/24 03:06:59;;;;;;;7.67;5.28;;;;;;;1.62;84.19;98881.86;1696234;82;25836;-66
2021/01/24 03:09:26;;;;;;;10.88;5.87;;;;;;;1.65;84.15;98878.70;1702469;82;26023;-66
2021/01/24 03:11:55;;;;;;;10.58;6.10;;;;;;;1.66;84.15;98871.19;1709894;82;25971;-66
2021/01/24 03:14:26;;;;;;;9.43;5.47;;;;;;;1.64;84.06;98869.92;1673816;83;28277;-66
2021/01/24 03:16:59;;;;;;;10.23;5.62;;;;;;;1.58;83.97;98867.03;1679915;83;25711;-66
2021/01/24 03:19:28;;;;;;;9.58;5.83;;;;;;;1.55;84.05;98868.92;1708431;82;27202;-66
2021/01/24 03:21:57;;;;;;;8.83;5.80;;;;;;;1.55;84.08;98865.83;1728069;81;26022;-67
2021/01/24 03:24:24;;;;;;;10.45;6.40;;;;;;;1.51;83.93;98862.89;1722082;81;26310;-66
2021/01/24 03:26:51;;;;;;;13.13;6.67;;;;;;;1.46;83.94;98856.05;1700099;82;27756;-67
2021/01/24 03:29:19;;;;;;;11.97;6.30;;;;;;;1.44;84.00;98856.10;1726749;81;25775;-66
2021/01/24 03:31:47;;;;;;;12.82;7.45;;;;;;;1.44;84.04;98852.14;1708971;82;25854;-66
2021/01/24 03:34:23;;;;;;;11.83;6.22;;;;;;;1.42;84.02;98848.69;1713195;82;25854;-68
2021/01/24 03:36:53;;;;;;;15.18;7.22;;;;;;;1.40;84.00;98851.84;1702162;82;25903;-64
2021/01/24 03:39:20;;;;;;;11.97;7.20;;;;;;;1.35;83.97;98845.86;1725008;81;27457;-67
2021/01/24 03:41:47;;;;;;;16.87;8.78;;;;;;;1.36;84.08;98851.55;1696505;82;26175;-66
2021/01/24 03:44:13;;;;;;;15.55;7.35;;;;;;;1.39;84.15;98851.44;1709418;82;25732;-66
2021/01/24 03:46:40;;;;;;;14.75;7.65;;;;;;;1.42;84.10;98859.71;1689392;82;28372;-66
2021/01/24 03:49:06;;;;;;;16.85;8.48;;;;;;;1.39;84.12;98852.76;1708726;82;25889;-66
2021/01/24 03:51:33;;;;;;;21.77;10.28;;;;;;;1.43;84.20;98851.73;1705991;82;28349;-67
2021/01/24 03:53:59;;;;;;;18.17;9.03;;;;;;;1.45;84.17;98844.63;1715298;82;26574;-67
2021/01/24 03:56:25;;;;;;;20.68;10.13;;;;;;;1.42;84.06;98847.38;1727164;81;25943;-67
2021/01/24 03:58:51;;;;;;;20.57;9.53;;;;;;;1.36;84.00;98845.41;1677099;83;26100;-67
2021/01/24 04:01:18;;;;;;;23.32;11.10;;;;;;;1.35;84.08;98848.50;1710924;82;25765;-67
2021/01/24 04:03:44;;;;;;;21.27;10.93;;;;;;;1.32;84.06;98844.65;1725422;81;27505;-67
2021/01/24 04:06:10;;;;;;;23.32;10.50;;;;;;;1.33;84.13;98849.02;1712373;82;26028;-66
2021/01/24 04:08:37;;;;;;;24.37;10.53;;;;;;;1.36;84.21;98850.69;1710362;82;25803;-67
2021/01/24 04:11:04;;;;;;;27.42;11.83;;;;;;;1.38;84.19;98849.72;1716126;82;26379;-67
2021/01/24 04:13:30;;;;;;;25.55;11.78;;;;;;;1.41;84.22;98847.42;1713807;82;25771;-67
2021/01/24 04:15:56;;;;;;;24.37;11.83;;;;;;;1.41;84.16;98841.69;1712957;82;27830;-67
2021/01/24 04:18:22;;;;;;;25.55;10.72;;;;;;;1.42;84.18;98838.59;1714231;82;25715;-67
2021/01/24 04:20:48;;;;;;;23.12;11.00;;;;;;;1.41;84.11;98839.05;1714233;82;25725;-67
2021/01/24 04:23:14;;;;;;;24.77;11.08;;;;;;;1.38;84.06;98839.16;1716993;82;25970;-67
2021/01/24 04:25:40;;;;;;;22.35;10.60;;;;;;;1.29;84.03;98832.88;1714276;82;26583;-67
2021/01/24 04:28:06;;;;;;;20.45;10.45;;;;;;;1.23;84.02;98833.95;1716873;82;27586;-67
2021/01/24 04:30:33;;;;;;;21.48;10.30;;;;;;;1.23;84.08;98833.09;1715102;82;25865;-67
2021/01/24 04:32:59;;;;;;;18.60;9.70;;;;;;;1.20;84.11;98831.88;1710480;82;25837;-66
2021/01/24 04:35:25;;;;;;;17.48;8.80;;;;;;;1.17;84.12;98826.70;1726373;81;25907;-67
2021/01/24 04:37:51;;;;;;;24.87;11.38;;;;;;;1.14;84.12;98825.03;1697640;82;26055;-67
2021/01/24 04:40:18;;;;;;;24.25;10.58;;;;;;;1.15;84.21;98825.90;1689480;82;29564;-67
2021/01/24 04:42:44;;;;;;;20.50;9.78;;;;;;;1.17;84.25;98827.56;1693111;82;33852;-67
2021/01/24 04:45:11;;;;;;;22.48;10.00;;;;;;;1.20;84.20;98827.92;1697957;82;25764;-66
2021/01/24 04:47:41;;;;;;;21.10;9.75;;;;;;;1.22;84.25;98827.41;1695307;82;26441;-69
2021/01/24 04:50:08;;;;;;;27.73;10.75;;;;;;;1.22;84.24;98825.63;1695760;82;26012;-67
2021/01/24 04:52:34;;;;;;;23.32;11.28;;;;;;;1.24;84.23;98821.16;1684754;82;28367;-67
2021/01/24 04:55:03;;;;;;;20.25;9.93;;;;;;;1.27;84.29;98818.88;1715197;82;27263;-67
2021/01/24 04:57:31;;;;;;;25.27;12.28;;;;;;;1.31;84.35;98816.53;1713782;82;25874;-67
2021/01/24 04:59:57;;;;;;;27.20;10.28;;;;;;;1.33;84.30;98817.80;1715823;82;25803;-67
2021/01/24 05:02:24;;;;;;;23.18;10.35;;;;;;;1.34;84.28;98821.70;1716928;82;26303;-67
2021/01/24 05:04:50;;;;;;;19.25;9.63;;;;;;;1.38;84.35;98819.81;1710762;82;27554;-67
2021/01/24 05:07:17;;;;;;;25.40;10.98;;;;;;;1.40;84.27;98814.02;1709876;82;26041;-67
2021/01/24 05:09:47;;;;;;;22.73;10.32;;;;;;;1.40;84.32;98817.98;1710874;82;26126;-67
2021/01/24 05:12:16;;;;;;;19.27;9.48;;;;;;;1.45;84.39;98823.96;1714108;82;27928;-67
2021/01/24 05:14:43;;;;;;;20.82;10.35;;;;;;;1.47;84.35;98816.85;1712798;82;25839;-67
2021/01/24 05:17:09;;;;;;;19.92;9.15;;;;;;;1.49;84.33;98821.62;1714110;82;29661;-68
2021/01/24 05:19:36;;;;;;;17.20;8.43;;;;;;;1.48;84.32;98818.12;1704192;82;26479;-67
2021/01/24 05:22:03;;;;;;;21.23;10.63;;;;;;;1.49;84.37;98819.84;1703359;82;25863;-67
2021/01/24 05:24:31;;;;;;;22.93;10.28;;;;;;;1.50;84.33;98821.56;1703031;82;25818;-68
2021/01/24 05:27:11;;;;;;;23.30;10.25;;;;;;;1.51;84.30;98824.61;1674440;83;25829;-70
2021/01/24 05:29:43;;;;;;;18.57;9.38;;;;;;;1.52;84.31;98822.37;1704959;82;28494;-67
2021/01/24 05:32:11;;;;;;;20.97;9.78;;;;;;;1.49;84.19;98831.72;1680811;83;25879;-66
2021/01/24 05:34:37;;;;;;;28.10;10.85;;;;;;;1.48;84.28;98829.13;1659448;84;25828;-67
2021/01/24 05:37:04;;;;;;;25.02;10.58;;;;;;;1.48;84.26;98833.95;1662212;84;26143;-66
2021/01/24 05:39:32;;;;;;;21.77;11.20;;;;;;;1.49;84.32;98832.18;1664536;84;25860;-67
2021/01/24 05:42:00;;;;;;;24.95;11.88;;;;;;;1.51;84.35;98834.30;1663014;84;28595;-67
2021/01/24 05:44:27;;;;;;;20.80;9.78;;;;;;;1.52;84.34;98818.87;1657270;85;26069;-66
2021/01/24 05:47:03;;;;;;;22.45;9.33;;;;;;;1.48;84.19;98819.44;1683364;83;25888;-67
2021/01/24 05:49:33;;;;;;;22.48;10.03;;;;;;;1.48;84.31;98819.44;1662147;84;26584;-66
2021/01/24 05:52:08;;;;;;;26.83;11.10;;;;;;;1.49;84.30;98819.84;1664077;84;25986;-66
2021/01/24 05:54:44;;;;;;;22.70;10.60;;;;;;;1.49;84.33;98815.02;1664971;84;27763;-67
2021/01/24 05:57:12;;;;;;;26.60;11.80;;;;;;;1.48;84.36;98819.44;1682303;83;25851;-67
2021/01/24 05:59:55;;;;;;;24.67;11.45;;;;;;;1.40;84.21;98814.89;1662455;84;25905;-67
2021/01/24 06:02:25;;;;;;;24.95;11.50;;;;;;;1.40;84.33;98814.89;1659387;84;26310;-66
2021/01/24 06:04:52;;;;;;;26.60;10.75;;;;;;;1.40;84.32;98812.25;1658024;84;25845;-67
2021/01/24 06:07:19;;;;;;;28.23;12.20;;;;;;;1.35;84.18;98816.83;1664571;84;28629;-67
2021/01/24 06:09:46;;;;;;;34.95;13.95;;;;;;;1.29;84.29;98807.34;1706729;82;26907;-66
2021/01/24 06:12:17;;;;;;;33.28;13.55;;;;;;;1.30;84.35;98804.25;1707091;82;25449;-66
2021/01/24 06:14:50;;;;;;;28.80;11.93;;;;;;;1.30;84.32;98813.48;1703918;82;25803;-67
2021/01/24 06:17:37;;;;;;;27.45;12.03;;;;;;;1.29;84.31;98812.63;1674595;83;25868;-67
2021/01/24 06:20:09;;;;;;;29.12;11.73;;;;;;;1.29;84.35;98813.95;1699210;82;28788;-67
2021/01/24 06:22:49;;;;;;;22.75;10.68;;;;;;;1.33;84.47;98808.10;1707141;82;25879;-67
2021/01/24 06:25:26;;;;;;;24.30;10.48;;;;;;;1.35;84.41;98811.55;1708829;82;26346;-66
2021/01/24 06:28:00;;;;;;;20.02;9.63;;;;;;;1.36;84.35;98803.17;1710257;82;26190;-67
2021/01/24 06:30:30;;;;;;;25.17;9.83;;;;;;;1.34;84.36;98807.19;1697961;82;25913;-67
2021/01/24 06:33:03;;;;;;;19.62;10.28;;;;;;;1.31;84.32;98795.42;1695829;82;28237;-67
2021/01/24 06:35:29;;;;;;;20.12;9.53;;;;;;;1.32;84.42;98795.82;1705561;82;27287;-67
2021/01/24 06:38:01;;;;;;;22.82;10.23;;;;;;;1.35;84.41;98794.39;1725258;81;25989;-67
2021/01/24 06:40:30;;;;;;;21.57;10.58;;;;;;;1.35;84.42;98791.75;1693622;82;26699;-66
2021/01/24 06:43:03;;;;;;;27.62;10.45;;;;;;;1.34;84.36;98793.98;1695658;82;25771;-66
2021/01/24 06:45:37;;;;;;;22.55;10.65;;;;;;;1.38;84.45;98796.06;1709798;82;27560;-68
2021/01/24 06:48:04;;;;;;;20.25;9.90;;;;;;;1.38;84.42;98798.70;1709874;82;26560;-66
2021/01/24 06:50:48;;;;;;;20.55;9.10;;;;;;;1.40;84.47;98791.59;1708380;82;26198;-66
2021/01/24 06:53:21;;;;;;;20.85;9.80;;;;;;;1.43;84.48;98792.34;1720284;81;26018;-67
2021/01/24 06:56:01;;;;;;;19.48;9.00;;;;;;;1.42;84.44;98789.30;1699665;82;25945;-66
2021/01/24 06:58:49;;;;;;;16.30;8.93;;;;;;;1.46;84.49;98786.95;1695191;82;28233;-66
2021/01/24 07:01:31;;;;;;;18.92;8.33;;;;;;;1.50;84.52;98789.02;1702527;82;25778;-66
2021/01/24 07:04:29;;;;;;;17.07;7.95;;;;;;;1.48;84.43;98785.11;1713363;82;26310;-67
2021/01/24 07:06:58;;;;;;;17.40;7.30;;;;;;;1.44;84.37;98779.55;1700601;82;27913;-66
2021/01/24 07:09:33;;;;;;;17.40;7.55;;;;;;;1.42;84.38;98785.80;1732561;81;25895;-67
2021/01/24 07:12:07;;;;;;;19.77;8.03;;;;;;;1.39;84.35;98788.09;1696388;82;28063;-67
2021/01/24 07:14:41;;;;;;;14.73;7.70;;;;;;;1.37;84.38;98793.02;1708417;82;25793;-66
2021/01/24 07:17:19;;;;;;;17.10;7.25;;;;;;;1.36;84.40;98790.84;1711152;82;25724;-66
2021/01/24 07:19:48;;;;;;;15.10;6.85;;;;;;;1.38;84.46;98784.19;1706909;81;26175;-66
2021/01/24 07:22:17;;;;;;;16.73;7.97;;;;;;;1.37;84.39;98783.32;1677306;83;25903;-66
2021/01/24 07:24:47;;;;;;;21.55;9.25;;;;;;;1.36;84.45;98784.23;1677045;83;27501;-66
2021/01/24 07:27:19;;;;;;;19.25;9.33;;;;;;;1.38;84.50;98786.83;1681000;83;26088;-66
2021/01/24 07:29:45;;;;;;;17.77;8.80;;;;;;;1.40;84.50;98777.94;1674761;83;25981;-66
2021/01/24 07:32:16;;;;;;;17.15;8.60;;;;;;;1.41;84.44;98784.94;1678144;83;25802;-66
2021/01/24 07:34:48;;;;;;;19.02;9.05;;;;;;;1.41;84.47;98783.61;1684035;83;25901;-68
2021/01/24 07:37:15;;;;;;;20.80;9.53;;;;;;;1.43;84.45;98787.06;1678979;83;28213;-67
2021/01/24 07:39:51;;;;;;;17.27;8.83;;;;;;;1.41;84.42;98789.35;1679203;83;26294;-65
2021/01/24 07:42:18;;;;;;;20.00;8.98;;;;;;;1.45;84.51;98799.75;1671986;84;26289;-65
2021/01/24 07:44:46;;;;;;;21.15;10.23;;;;;;;1.45;84.45;98796.25;1686451;83;25863;-67
2021/01/24 07:47:15;;;;;;;17.75;9.83;;;;;;;1.49;84.58;98794.76;1653390;85;25841;-66
2021/01/24 07:49:42;;;;;;;18.95;9.35;;;;;;;1.57;84.56;98805.05;1682327;83;27464;-66
2021/01/24 07:52:09;;;;;;;20.43;9.60;;;;;;;1.57;84.55;98798.44;1683524;83;26393;-66
2021/01/24 07:54:39;;;;;;;20.05;9.00;;;;;;;1.61;84.52;98800.05;1681897;83;26529;-66
2021/01/24 07:57:07;;;;;;;19.25;9.03;;;;;;;1.59;84.38;98799.25;1675583;83;26224;-66
2021/01/24 07:59:35;;;;;;;17.07;7.42;;;;;;;1.55;84.41;98793.67;1681501;83;25796;-65
2021/01/24 08:02:03;;;;;;;21.75;8.73;;;;;;;1.53;84.40;98795.05;1679278;83;27790;-65
2021/01/24 08:04:29;;;;;;;26.20;10.48;;;;;;;1.49;84.35;98801.36;1674929;83;25846;-66
2021/01/24 08:06:55;;;;;;;22.65;10.95;;;;;;;1.46;84.35;98800.15;1649481;85;25895;-66
2021/01/24 08:09:22;;;;;;;23.73;9.60;;;;;;;1.41;84.35;98808.69;1679455;83;25817;-66
2021/01/24 08:11:49;;;;;;;23.65;10.38;;;;;;;1.40;84.35;98800.83;1681674;83;25777;-67
2021/01/24 08:14:16;;;;;;;21.17;10.25;;;;;;;1.38;84.40;98797.38;1680310;83;28344;-66
2021/01/24 08:16:45;;;;;;;21.30;9.53;;;;;;;1.36;84.34;98798.76;1685011;83;25785;-65
2021/01/24 08:19:17;;;;;;;23.57;10.18;;;;;;;1.34;84.34;98797.95;1680470;83;26432;-66
2021/01/24 08:21:43;;;;;;;;;;;;;;;1.27;84.26;98803.90;1704944;82;26013;-65
2021/01/24 08:24:10;;;;;;;25.02;11.45;;;;;;;1.26;84.32;98800.00;1693303;83;26678;-65
2021/01/24 08:26:38;;;;;;;25.80;11.55;;;;;;;1.22;84.40;98803.20;1692888;82;27689;-65
2021/01/24 08:29:05;;;;;;;27.77;11.50;;;;;;;1.22;84.38;98804.98;1700359;82;26007;-65
2021/01/24 08:31:33;;;;;;;27.07;12.40;;;;;;;1.18;84.32;98808.19;1709671;82;26064;-64
2021/01/24 08:34:01;;;;;;;26.60;11.15;;;;;;;1.15;84.35;98810.92;1705098;82;25827;-66
2021/01/24 08:36:29;;;;;;;23.47;11.22;;;;;;;1.14;84.40;98803.92;1703829;82;25883;-65
2021/01/24 08:38:58;;;;;;;28.52;12.70;;;;;;;1.14;84.35;98800.42;1708448;82;28239;-65
2021/01/24 08:41:39;;;;;;;29.45;13.15;;;;;;;1.11;84.35;98801.84;1715777;81;26598;-65
2021/01/24 08:44:16;;;;;;;28.32;13.20;;;;;;;1.08;84.38;98806.77;1717929;81;25836;-64
2021/01/24 08:46:48;;;;;;;31.93;14.35;;;;;;;1.10;84.45;98802.77;1718757;81;26058;-64
2021/01/24 08:49:29;;;;;;;30.20;13.68;;;;;;;1.11;84.46;98796.11;1724428;81;25840;-64
2021/01/24 08:52:00;;;;;;;30.48;14.03;;;;;;;1.10;84.42;98805.41;1710996;81;27780;-66
2021/01/24 08:54:35;;;;;;;24.90;13.22;;;;;;;1.08;84.49;98803.27;1717801;81;25774;-65
2021/01/24 08:57:18;;;;;;;33.48;14.93;;;;;;;1.07;84.46;98797.14;1707440;82;26222;-65
2021/01/24 09:00:01;;;;;;;38.42;15.68;;;;;;;1.05;84.36;98800.28;1706420;82;26618;-66
2021/01/24 09:02:31;;;;;;;29.40;14.70;;;;;;;0.97;84.29;98797.91;1720541;81;25867;-66
2021/01/24 09:04:58;;;;;;;34.75;15.32;;;;;;;0.92;84.31;98795.89;1711222;82;27507;-65
2021/01/24 09:07:34;;;;;;;35.90;15.55;;;;;;;0.88;84.30;98799.54;1721878;81;25737;-65
2021/01/24 09:10:28;;;;;;;41.65;19.10;;;;;;;0.84;84.34;98802.33;1724136;81;25976;-66
2021/01/24 09:12:55;;;;;;;48.17;21.07;;;;;;;0.84;84.46;98803.20;1709893;82;30889;-66
2021/01/24 09:15:23;;;;;;;43.55;19.52;;;;;;;0.87;84.54;98801.77;1710062;82;26405;-66
2021/01/24 09:17:53;;;;;;;41.75;19.37;;;;;;;0.91;84.60;98807.81;1717175;81;27456;-66
2021/01/24 09:20:20;;;;;;;41.37;19.67;;;;;;;0.96;84.66;98804.55;1708339;82;26146;-67
2021/01/24 09:22:48;;;;;;;35.50;17.45;;;;;;;1.02;84.69;98806.13;1711316;82;25868;-67
2021/01/24 09:25:15;;;;;;;37.98;18.77;;;;;;;1.05;84.66;98800.74;1704192;82;25869;-66
2021/01/24 09:27:41;;;;;;;38.42;18.15;;;;;;;1.06;84.61;98801.15;1717236;81;25820;-67
2021/01/24 09:30:12;;;;;;;40.45;18.15;;;;;;;1.06;84.59;98798.05;1675459;83;27521;-66
2021/01/24 09:32:38;;;;;;;37.53;16.48;;;;;;;1.10;84.66;98796.17;1721219;81;26087;-66
2021/01/24 09:35:06;;;;;;;34.30;16.67;;;;;;;1.11;84.65;98801.39;1706800;82;25569;-67
2021/01/24 09:37:33;;;;;;;36.63;17.50;;;;;;;1.11;84.62;98796.58;1728125;81;26270;-66
2021/01/24 09:40:00;;;;;;;36.55;16.55;;;;;;;1.11;84.64;98804.48;1714676;82;25828;-66
2021/01/24 09:42:26;;;;;;;32.05;15.65;;;;;;;1.12;84.65;98796.98;1707448;82;28078;-66
2021/01/24 09:44:52;;;;;;;35.78;16.10;;;;;;;1.11;84.59;98800.53;1714505;82;26325;-67
2021/01/24 09:47:18;;;;;;;35.13;16.87;;;;;;;1.11;84.67;98799.21;1714626;82;25846;-67
2021/01/24 09:49:44;;;;;;;32.17;15.72;;;;;;;1.15;84.72;98799.52;1710242;82;25988;-67
2021/01/24 09:52:10;;;;;;;32.90;14.45;;;;;;;1.14;84.71;98792.05;1710551;82;26002;-66
2021/01/24 09:54:36;;;;;;;32.15;16.27;;;;;;;1.21;84.83;98792.24;1715455;82;27492;-66
2021/01/24 09:57:03;;;;;;;32.58;14.03;;;;;;;1.23;84.81;98790.41;1710879;82;25855;-66
2021/01/24 09:59:29;;;;;;;31.07;14.23;;;;;;;1.25;84.80;98793.86;1707209;82;25801;-66
2021/01/24 10:01:55;;;;;;;37.90;15.68;;;;;;;1.23;84.73;98781.17;1712917;82;27922;-68
2021/01/24 10:04:21;;;;;;;30.70;15.48;;;;;;;1.19;84.65;98780.02;1713967;82;26353;-68
2021/01/24 10:06:47;;;;;;;32.93;15.72;;;;;;;1.17;84.64;98785.80;1710368;82;28311;-68
2021/01/24 10:09:14;;;;;;;33.95;15.38;;;;;;;1.12;84.61;98786.42;1711163;82;33379;-67
2021/01/24 10:11:42;;;;;;;34.67;16.45;;;;;;;1.11;84.74;98789.52;1712380;82;26117;-68
2021/01/24 10:14:08;;;;;;;33.42;15.23;;;;;;;1.14;84.78;98785.45;1706684;82;25885;-67
2021/01/24 10:16:34;;;;;;;29.95;14.83;;;;;;;1.16;84.74;98780.98;1713286;82;25789;-66
2021/01/24 10:19:00;;;;;;;38.30;17.05;;;;;;;1.14;84.66;98776.68;1714524;82;28319;-67
2021/01/24 10:21:27;;;;;;;33.63;16.30;;;;;;;1.15;84.77;98783.68;1710533;82;25813;-67
2021/01/24 10:23:53;;;;;;;34.58;16.65;;;;;;;1.22;84.83;98779.91;1712857;82;25820;-68
2021/01/24 10:26:19;;;;;;;37.93;16.67;;;;;;;1.21;84.76;98788.74;1710742;82;26562;-67
2021/01/24 10:28:45;;;;;;;35.15;16.27;;;;;;;1.20;84.69;98779.96;1712208;82;26132;-67
2021/01/24 10:31:11;;;;;;;34.03;15.60;;;;;;;1.17;84.70;98780.07;1714891;82;27818;-67
2021/01/24 10:33:37;;;;;;;33.58;16.02;;;;;;;1.21;84.98;98781.69;1710189;82;25857;-67
2021/01/24 10:36:04;;;;;;;36.45;15.65;;;;;;;1.26;84.80;98777.56;1713540;82;25785;-67
2021/01/24 10:38:31;;;;;;;34.00;16.52;;;;;;;1.21;84.69;98786.97;1714963;82;26723;-67
2021/01/24 10:40:57;;;;;;;38.28;15.80;;;;;;;1.26;84.87;98776.24;1711388;82;26256;-67
2021/01/24 10:43:23;;;;;;;33.38;16.23;;;;;;;1.30;84.86;98783.14;1707812;82;28122;-68
2021/01/24 10:45:49;;;;;;;38.67;18.30;;;;;;;1.33;84.87;98783.03;1715621;82;25902;-68
2021/01/24 10:48:15;;;;;;;39.38;17.65;;;;;;;1.39;84.93;98778.84;1709724;82;26563;-68
2021/01/24 10:50:41;;;;;;;36.35;17.40;;;;;;;1.42;84.97;98782.70;1714291;82;26546;-67
2021/01/24 10:53:08;;;;;;;41.42;20.20;;;;;;;1.44;84.93;98784.83;1715083;82;25854;-68
2021/01/24 10:55:36;;;;;;;40.03;18.70;;;;;;;1.46;84.92;98787.41;1710683;82;27845;-68
2021/01/24 10:58:03;;;;;;;46.42;21.37;;;;;;;1.44;84.86;98783.50;1699903;82;26230;-67
2021/01/24 11:00:30;;;;;;;47.08;24.60;;;;;;;1.44;84.89;98782.64;1705231;82;25723;-67
2021/01/24 11:02:57;;;;;;;65.78;29.20;;;;;;;1.44;84.95;98782.64;1700249;82;26649;-66
2021/01/24 11:05:23;;;;;;;56.88;28.92;;;;;;;1.40;84.87;98787.17;1722420;81;25907;-69
2021/01/24 11:07:49;;;;;;;68.78;31.57;;;;;;;1.37;84.84;98789.06;1683914;82;27980;-67
2021/01/24 11:10:15;;;;;;;74.62;37.95;;;;;;;1.32;84.80;98789.68;1710055;82;25826;-68
2021/01/24 11:12:41;;;;;;;81.90;38.80;;;;;;;1.26;84.80;98792.08;1704391;82;25804;-67
2021/01/24 11:15:10;;;;;;;79.97;38.92;;;;;;;1.22;84.81;98791.33;1708517;82;27925;-67
2021/01/24 11:17:37;;;;;;;89.85;43.40;;;;;;;1.18;84.83;98792.35;1697194;82;26281;-68
2021/01/24 11:20:08;;;;;;;87.85;41.90;;;;;;;1.20;84.98;98788.34;1714841;82;27502;-68
2021/01/24 11:22:37;;;;;;;93.93;43.17;;;;;;;1.22;84.97;98783.87;1713626;82;26386;-66
2021/01/24 11:25:05;;;;;;;89.90;41.77;;;;;;;1.19;85.02;98780.02;1714055;82;25856;-65
2021/01/24 11:27:33;;;;;;;116.37;45.15;;;;;;;1.21;85.00;98778.19;1714942;82;26027;-64
2021/01/24 11:29:59;;;;;;;146.22;54.15;;;;;;;1.18;84.95;98780.47;1714947;82;26753;-66
2021/01/24 11:32:25;;;;;;;144.75;52.88;;;;;;;1.19;85.06;98782.66;1715275;82;27499;-66
2021/01/24 11:34:51;;;;;;;119.05;47.70;;;;;;;1.21;85.05;98782.14;1713229;82;25802;-66
2021/01/24 11:37:17;;;;;;;117.85;45.48;;;;;;;1.20;85.00;98772.05;1716409;82;25694;-67
2021/01/24 11:39:43;;;;;;;114.77;47.58;;;;;;;1.17;85.01;98778.75;1714939;82;26421;-68